createdAt,value
2022-09-22T00:01:22.944Z,1.00
2022-09-22T00:03:55.395Z,0.80
2022-09-22T00:06:34.945Z,0.80
2022-09-22T00:09:04.136Z,1.10
2022-09-22T00:11:37.616Z,0.73
2022-09-22T00:14:08.820Z,0.90
2022-09-22T00:16:39.175Z,1.00
2022-09-22T00:19:07.828Z,0.90
2022-09-22T00:21:35.651Z,0.88
2022-09-22T00:24:04.636Z,1.10
2022-09-22T00:26:31.575Z,1.17
2022-09-22T00:28:59.656Z,1.00
2022-09-22T00:31:27.433Z,1.10
2022-09-22T00:33:54.995Z,1.27
2022-09-22T00:36:25.883Z,1.85
2022-09-22T00:38:55.584Z,1.70
2022-09-22T00:41:25.655Z,1.77
2022-09-22T00:44:21.592Z,1.98
2022-09-22T00:47:01.399Z,2.10
2022-09-22T00:49:38.126Z,2.20
2022-09-22T00:52:06.195Z,2.08
2022-09-22T00:54:34.155Z,1.73
2022-09-22T00:57:16.416Z,2.20
2022-09-22T00:59:46.106Z,2.00
2022-09-22T01:02:13.180Z,2.30
2022-09-22T01:04:42.351Z,1.60
2022-09-22T01:07:11.185Z,1.70
2022-09-22T01:09:38.917Z,1.85
2022-09-22T01:12:06.346Z,1.10
2022-09-22T01:14:55.805Z,1.50
2022-09-22T01:17:43.596Z,1.50
2022-09-22T01:20:23.891Z,1.10
2022-09-22T01:23:05.826Z,1.02
2022-09-22T01:26:12.106Z,1.02
2022-09-22T01:28:47.890Z,0.90
2022-09-22T01:31:22.192Z,0.80
2022-09-22T01:34:17.561Z,1.23
2022-09-22T01:36:55.406Z,0.88
2022-09-22T01:39:40.646Z,1.00
2022-09-22T01:42:15.406Z,0.95
2022-09-22T01:45:13.016Z,1.07
2022-09-22T01:47:56.315Z,1.00
2022-09-22T01:50:42.465Z,0.90
2022-09-22T01:53:14.435Z,0.77
2022-09-22T01:55:51.365Z,1.00
2022-09-22T01:58:29.176Z,0.80
2022-09-22T02:01:14.294Z,0.80
2022-09-22T02:03:44.576Z,0.90
2022-09-22T02:06:18.556Z,0.98
2022-09-22T02:08:58.909Z,0.80
2022-09-22T02:11:26.145Z,0.90
2022-09-22T02:13:55.886Z,0.90
2022-09-22T02:16:24.466Z,0.90
2022-09-22T02:19:31.685Z,1.08
2022-09-22T02:21:59.245Z,0.80
2022-09-22T02:24:32.325Z,0.90
2022-09-22T02:27:13.550Z,1.02
2022-09-22T02:29:45.337Z,0.90
2022-09-22T02:32:16.310Z,0.90
2022-09-22T02:34:47.920Z,0.80
2022-09-22T02:37:52.597Z,0.88
2022-09-22T02:40:30.331Z,0.80
2022-09-22T02:43:23.541Z,0.80
2022-09-22T02:46:26.037Z,0.65
2022-09-22T02:49:00.655Z,0.82
2022-09-22T02:51:29.840Z,0.80
2022-09-22T02:53:58.156Z,0.70
2022-09-22T02:56:25.556Z,0.90
2022-09-22T02:58:57.647Z,0.80
2022-09-22T03:01:25.974Z,0.90
2022-09-22T03:03:53.075Z,0.93
2022-09-22T03:06:20.018Z,0.93
2022-09-22T03:08:47.016Z,0.80
2022-09-22T03:11:14.095Z,1.02
2022-09-22T03:13:41.122Z,0.90
2022-09-22T03:16:08.492Z,1.00
2022-09-22T03:18:35.706Z,0.85
2022-09-22T03:21:02.728Z,0.90
2022-09-22T03:23:29.846Z,0.80
2022-09-22T03:25:59.006Z,0.90
2022-09-22T03:28:26.054Z,0.90
2022-09-22T03:30:53.049Z,0.82
2022-09-22T03:33:20.057Z,0.90
2022-09-22T03:35:47.035Z,0.90
2022-09-22T03:38:13.987Z,0.82
2022-09-22T03:40:41.700Z,0.80
2022-09-22T03:43:10.957Z,1.10
2022-09-22T03:45:41.414Z,1.00
2022-09-22T03:48:08.436Z,0.80
2022-09-22T03:50:35.356Z,1.00
2022-09-22T03:53:02.335Z,1.00
2022-09-22T03:55:30.016Z,1.10
2022-09-22T03:57:56.940Z,0.90
2022-09-22T04:00:23.948Z,1.13
2022-09-22T04:02:50.891Z,0.85
2022-09-22T04:05:17.895Z,1.05
2022-09-22T04:07:45.156Z,1.00
2022-09-22T04:10:12.155Z,0.80
2022-09-22T04:12:39.165Z,1.00
2022-09-22T04:15:06.726Z,0.90
2022-09-22T04:17:33.731Z,0.88
2022-09-22T04:20:01.804Z,0.98
2022-09-22T04:22:29.113Z,1.00
2022-09-22T04:24:56.106Z,0.88
2022-09-22T04:27:23.505Z,1.08
2022-09-22T04:29:50.576Z,0.90
2022-09-22T04:32:18.575Z,0.98
2022-09-22T04:34:45.596Z,0.95
2022-09-22T04:37:12.698Z,0.75
2022-09-22T04:39:39.748Z,1.10
2022-09-22T04:42:09.205Z,1.05
2022-09-22T04:44:36.241Z,0.90
2022-09-22T04:47:04.418Z,0.93
2022-09-22T04:49:31.454Z,1.00
2022-09-22T04:52:03.130Z,1.05
2022-09-22T04:54:30.499Z,1.00
2022-09-22T04:56:57.506Z,1.10
2022-09-22T04:59:24.576Z,1.08
2022-09-22T05:01:51.486Z,1.10
2022-09-22T05:04:18.531Z,1.50
2022-09-22T05:06:47.696Z,1.38
2022-09-22T05:09:14.826Z,1.40
2022-09-22T05:11:41.836Z,1.30
2022-09-22T05:14:08.922Z,1.02
2022-09-22T05:16:36.271Z,1.45
2022-09-22T05:19:03.395Z,1.20
2022-09-22T05:21:30.415Z,1.33
2022-09-22T05:23:57.483Z,1.30
2022-09-22T05:26:24.766Z,0.98
2022-09-22T05:28:51.847Z,1.20
2022-09-22T05:31:19.122Z,1.13
2022-09-22T05:33:46.436Z,1.30
2022-09-22T05:36:13.417Z,1.25
2022-09-22T05:38:40.375Z,1.17
2022-09-22T05:41:07.770Z,1.08
2022-09-22T05:43:34.806Z,1.13
2022-09-22T05:46:01.884Z,1.33
2022-09-22T05:48:31.183Z,1.10
2022-09-22T05:50:59.091Z,1.27
2022-09-22T05:53:26.083Z,1.30
2022-09-22T05:55:53.175Z,1.20
2022-09-22T05:58:20.717Z,1.30
2022-09-22T06:00:47.814Z,1.30
2022-09-22T06:03:15.038Z,1.30
2022-09-22T06:05:44.155Z,1.20
2022-09-22T06:08:11.146Z,1.20
2022-09-22T06:10:39.186Z,1.30
2022-09-22T06:13:08.713Z,2.17
2022-09-22T06:15:36.786Z,1.10
2022-09-22T06:18:07.520Z,1.00
2022-09-22T06:20:35.796Z,1.13
2022-09-22T06:23:02.925Z,1.23
2022-09-22T06:25:29.948Z,1.33
2022-09-22T06:28:07.708Z,1.30
2022-09-22T06:30:36.820Z,1.15
2022-09-22T06:33:03.805Z,1.10
2022-09-22T06:35:37.692Z,1.85
2022-09-22T06:38:06.938Z,1.10
2022-09-22T06:40:37.832Z,1.10
2022-09-22T06:43:10.676Z,1.45
2022-09-22T06:45:46.831Z,1.25
2022-09-22T06:48:13.846Z,1.30
2022-09-22T06:50:41.191Z,1.10
2022-09-22T06:53:14.008Z,1.23
2022-09-22T06:55:43.230Z,1.30
2022-09-22T06:58:11.298Z,1.20
2022-09-22T07:00:39.057Z,1.20
2022-09-22T07:03:26.598Z,1.20
2022-09-22T07:05:59.505Z,1.10
2022-09-22T07:08:27.026Z,1.13
2022-09-22T07:10:56.397Z,1.00
2022-09-22T07:13:24.626Z,1.13
2022-09-22T07:15:52.025Z,0.95
2022-09-22T07:18:19.049Z,1.00
2022-09-22T07:20:46.055Z,1.38
2022-09-22T07:23:21.429Z,1.17
2022-09-22T07:25:56.459Z,1.15
2022-09-22T07:28:28.435Z,0.95
2022-09-22T07:30:59.147Z,1.20
2022-09-22T07:33:27.095Z,1.00
2022-09-22T07:36:08.005Z,1.20
2022-09-22T07:38:39.317Z,1.20
2022-09-22T07:41:14.005Z,1.35
2022-09-22T07:43:42.186Z,1.10
2022-09-22T07:46:09.457Z,1.15
2022-09-22T07:48:37.950Z,1.02
2022-09-22T07:51:12.915Z,1.10
2022-09-22T07:53:41.556Z,1.10
2022-09-22T07:56:15.193Z,0.95
2022-09-22T07:58:55.417Z,1.30
2022-09-22T08:01:24.860Z,1.23
2022-09-22T08:03:52.297Z,1.30
2022-09-22T08:06:23.543Z,1.10
2022-09-22T08:08:55.430Z,1.15
2022-09-22T08:11:27.912Z,1.02
2022-09-22T08:14:00.536Z,0.98
2022-09-22T08:16:35.519Z,1.00
2022-09-22T08:19:10.752Z,1.33
2022-09-22T08:21:48.083Z,1.10
2022-09-22T08:24:21.484Z,1.40
2022-09-22T08:26:52.883Z,1.08
2022-09-22T08:29:20.742Z,1.00
2022-09-22T08:31:49.428Z,0.95
2022-09-22T08:34:18.204Z,1.13
2022-09-22T08:36:49.182Z,0.90
2022-09-22T08:39:17.979Z,1.08
2022-09-22T08:42:11.986Z,1.10
2022-09-22T08:44:52.246Z,0.90
2022-09-22T08:47:43.745Z,1.10
2022-09-22T08:51:25.847Z,0.93
2022-09-22T08:53:53.445Z,1.20
2022-09-22T08:56:45.047Z,1.38
2022-09-22T08:59:23.292Z,1.08
2022-09-22T09:02:13.267Z,1.10
2022-09-22T09:05:07.255Z,1.35
2022-09-22T09:07:59.045Z,1.10
2022-09-22T09:10:40.546Z,0.80
2022-09-22T09:13:23.215Z,1.10
2022-09-22T09:16:21.124Z,1.20
2022-09-22T09:19:09.856Z,0.90
2022-09-22T09:21:40.836Z,0.95
2022-09-22T09:27:12.985Z,1.00
2022-09-22T09:30:04.789Z,0.90
2022-09-22T09:32:53.854Z,0.95
2022-09-22T09:35:27.128Z,0.98
2022-09-22T09:38:01.138Z,1.00
2022-09-22T09:40:31.380Z,0.88
2022-09-22T09:43:04.910Z,1.02
2022-09-22T09:45:50.516Z,1.20
2022-09-22T09:48:40.315Z,0.90
2022-09-22T09:51:12.415Z,1.17
2022-09-22T09:53:47.666Z,1.05
2022-09-22T09:56:26.292Z,0.82
2022-09-22T09:59:22.206Z,1.00
2022-09-22T10:01:54.308Z,1.10
2022-09-22T10:04:32.337Z,1.10
2022-09-22T10:10:24.608Z,1.10
2022-09-22T10:12:53.907Z,1.00
2022-09-22T10:15:26.057Z,0.80
2022-09-22T10:17:53.168Z,1.10
2022-09-22T10:20:26.256Z,1.15
2022-09-22T10:22:54.515Z,1.50
2022-09-22T10:25:40.225Z,1.10
2022-09-22T10:36:16.212Z,1.27
2022-09-22T10:38:46.816Z,1.52
2022-09-22T10:41:26.535Z,1.42
2022-09-22T10:51:18.606Z,1.33
2022-09-22T10:55:30.367Z,1.83
2022-09-22T10:57:48.016Z,1.52
2022-09-22T11:04:02.106Z,1.40
2022-09-22T11:15:06.213Z,1.63
2022-09-22T11:45:31.716Z,1.85
2022-09-22T11:48:31.886Z,1.70
2022-09-22T11:51:32.194Z,1.70
2022-09-22T11:54:20.016Z,1.92
2022-09-22T11:57:08.907Z,1.60
2022-09-22T11:59:50.975Z,1.88
2022-09-22T12:02:41.511Z,1.70
2022-09-22T12:05:22.966Z,1.45
2022-09-22T12:08:07.647Z,1.50
2022-09-22T12:10:52.166Z,2.20
2022-09-22T12:13:22.315Z,1.70
2022-09-22T12:16:18.849Z,2.00
2022-09-22T12:19:07.236Z,2.03
2022-09-22T12:22:16.096Z,1.80
2022-09-22T12:24:47.391Z,1.60
2022-09-22T12:27:26.341Z,2.13
2022-09-22T12:30:11.390Z,2.30
2022-09-22T12:32:50.020Z,1.80
2022-09-22T12:35:36.306Z,2.30
2022-09-22T12:38:06.075Z,2.15
2022-09-22T12:41:12.136Z,1.75
2022-09-22T12:46:06.708Z,1.90
2022-09-22T12:48:36.496Z,2.10
2022-09-22T12:51:35.021Z,2.50
2022-09-22T12:54:27.692Z,2.15
2022-09-22T12:57:12.226Z,2.00
2022-09-22T12:59:45.101Z,2.97
2022-09-22T13:02:18.442Z,3.03
2022-09-22T13:04:55.209Z,2.70
2022-09-22T13:07:43.340Z,2.03
2022-09-22T13:10:25.120Z,1.85
2022-09-22T13:13:05.783Z,2.47
2022-09-22T13:15:50.856Z,1.92
2022-09-22T13:18:40.877Z,2.08
2022-09-22T13:21:13.696Z,2.20
2022-09-22T13:23:56.777Z,2.60
2022-09-22T13:26:45.416Z,2.47
2022-09-22T13:29:22.289Z,2.00
2022-09-22T13:31:53.957Z,1.67
2022-09-22T13:34:37.757Z,1.80
2022-09-22T13:37:13.886Z,2.20
2022-09-22T13:39:47.370Z,1.42
2022-09-22T13:42:34.242Z,1.70
2022-09-22T13:45:19.221Z,1.95
2022-09-22T13:47:50.935Z,2.17
2022-09-22T13:50:22.588Z,1.70
2022-09-22T13:52:55.106Z,2.15
2022-09-22T13:55:28.526Z,1.80
2022-09-22T13:57:59.231Z,1.98
2022-09-22T14:00:31.575Z,1.98
2022-09-22T14:03:01.889Z,2.03
2022-09-22T14:05:33.245Z,2.05
2022-09-22T14:08:13.708Z,2.00
2022-09-22T14:10:47.185Z,2.20
2022-09-22T14:13:36.386Z,1.90
2022-09-22T14:16:35.828Z,2.15
2022-09-22T14:19:14.697Z,1.88
2022-09-22T14:21:58.745Z,2.17
2022-09-22T14:24:29.707Z,1.98
2022-09-22T14:27:04.319Z,2.00
2022-09-22T14:29:37.616Z,1.80
2022-09-22T14:32:22.491Z,1.88
2022-09-22T14:35:02.422Z,2.20
2022-09-22T14:37:33.656Z,2.15
2022-09-22T14:40:04.769Z,1.90
2022-09-22T14:42:33.877Z,2.00
2022-09-22T14:45:22.176Z,1.70
2022-09-22T14:48:10.485Z,1.77
2022-09-22T14:50:53.146Z,2.65
2022-09-22T14:53:42.015Z,2.00
2022-09-22T14:56:16.240Z,2.15
2022-09-22T14:58:53.157Z,1.92
2022-09-22T15:01:46.146Z,1.83
2022-09-22T15:04:23.379Z,2.50
2022-09-22T15:06:59.272Z,1.98
2022-09-22T15:09:37.200Z,2.15
2022-09-22T15:12:05.509Z,2.13
2022-09-22T15:14:42.435Z,2.10
2022-09-22T15:17:55.779Z,1.90
2022-09-22T15:20:41.221Z,1.80
2022-09-22T15:23:14.352Z,2.55
2022-09-22T15:25:41.642Z,2.30
2022-09-22T15:28:20.178Z,2.10
2022-09-22T15:30:51.447Z,1.83
2022-09-22T15:33:20.214Z,2.33
2022-09-22T15:35:50.405Z,1.98
2022-09-22T15:38:26.958Z,2.10
2022-09-22T15:40:54.211Z,1.90
2022-09-22T15:43:23.432Z,2.42
2022-09-22T15:45:56.896Z,2.17
2022-09-22T15:48:27.873Z,2.20
2022-09-22T15:50:56.315Z,2.10
2022-09-22T15:53:24.462Z,2.08
2022-09-22T15:55:52.516Z,2.20
2022-09-22T15:58:22.997Z,2.10
2022-09-22T16:00:53.321Z,2.30
2022-09-22T16:03:22.779Z,2.10
2022-09-22T16:05:56.832Z,1.98
2022-09-22T16:08:55.464Z,2.25
2022-09-22T16:11:30.962Z,1.92
2022-09-22T16:16:29.627Z,1.90
2022-09-22T16:18:57.493Z,1.90
2022-09-22T16:21:33.351Z,1.88
2022-09-22T16:24:06.290Z,2.25
2022-09-22T16:26:37.126Z,1.80
2022-09-22T16:29:05.418Z,2.08
2022-09-22T16:31:32.724Z,1.80
2022-09-22T16:34:01.821Z,2.10
2022-09-22T16:36:34.194Z,1.70
2022-09-22T16:39:03.388Z,1.63
2022-09-22T16:41:35.301Z,1.98
2022-09-22T16:44:03.635Z,1.60
2022-09-22T16:46:31.856Z,1.92
2022-09-22T16:49:04.269Z,1.80
2022-09-22T16:51:37.439Z,1.88
2022-09-22T16:54:07.279Z,1.83
2022-09-22T16:56:40.084Z,1.85
2022-09-22T16:59:07.929Z,1.73
2022-09-22T17:01:37.831Z,1.90
2022-09-22T17:04:07.491Z,1.90
2022-09-22T17:06:36.188Z,2.03
2022-09-22T17:09:03.355Z,2.10
2022-09-22T17:11:34.678Z,1.90
2022-09-22T17:14:05.598Z,1.80
2022-09-22T17:16:45.476Z,1.80
2022-09-22T17:19:19.601Z,1.92
2022-09-22T17:21:52.057Z,2.33
2022-09-22T17:24:22.978Z,2.00
2022-09-22T17:26:52.763Z,1.90
2022-09-22T17:29:25.458Z,2.13
2022-09-22T17:31:59.406Z,1.95
2022-09-22T17:34:28.695Z,2.33
2022-09-22T17:36:56.822Z,2.00
2022-09-22T17:39:25.192Z,1.70
2022-09-22T17:41:52.372Z,1.90
2022-09-22T17:44:22.947Z,2.10
2022-09-22T17:47:10.569Z,2.30
2022-09-22T17:49:57.489Z,2.00
2022-09-22T17:52:40.116Z,2.10
2022-09-22T17:55:20.688Z,2.15
2022-09-22T17:57:47.813Z,2.33
2022-09-22T18:00:19.499Z,2.00
2022-09-22T18:02:47.517Z,1.92
2022-09-22T18:05:18.951Z,2.00
2022-09-22T18:07:47.846Z,1.88
2022-09-22T18:10:17.710Z,2.15
2022-09-22T18:12:44.801Z,2.15
2022-09-22T18:15:13.510Z,2.00
2022-09-22T18:17:42.584Z,1.95
2022-09-22T18:20:15.392Z,1.80
2022-09-22T18:22:48.125Z,1.85
2022-09-22T18:25:19.489Z,1.70
2022-09-22T18:27:48.653Z,1.50
2022-09-22T18:30:19.465Z,1.70
2022-09-22T18:32:47.698Z,1.70
2022-09-22T18:35:14.991Z,2.10
2022-09-22T18:37:42.258Z,1.80
2022-09-22T18:40:11.929Z,1.80
2022-09-22T18:42:39.147Z,1.60
2022-09-22T18:45:06.715Z,1.50
2022-09-22T18:47:39.770Z,1.50
2022-09-22T18:50:07.391Z,1.75
2022-09-22T18:52:34.814Z,1.92
2022-09-22T18:55:05.041Z,1.80
2022-09-22T18:57:32.005Z,1.80
2022-09-22T19:00:00.390Z,1.65
2022-09-22T19:02:28.725Z,1.55
2022-09-22T19:04:55.815Z,1.70
2022-09-22T19:07:42.126Z,1.60
2022-09-22T19:10:12.064Z,1.42
2022-09-22T19:12:42.904Z,1.50
2022-09-22T19:15:18.932Z,1.30
2022-09-22T19:17:48.600Z,1.40
2022-09-22T19:20:18.998Z,1.50
2022-09-22T19:22:47.107Z,1.40
2022-09-22T19:25:15.076Z,1.70
2022-09-22T19:27:42.760Z,1.67
2022-09-22T19:30:11.660Z,1.52
2022-09-22T19:32:40.084Z,1.33
2022-09-22T19:35:08.300Z,1.58
2022-09-22T19:37:36.172Z,1.75
2022-09-22T19:40:04.535Z,1.65
2022-09-22T19:42:31.766Z,1.67
2022-09-22T19:44:59.289Z,1.50
2022-09-22T19:47:26.385Z,1.63
2022-09-22T19:49:53.461Z,1.60
2022-09-22T19:52:20.823Z,1.50
2022-09-22T19:54:47.836Z,1.63
2022-09-22T19:57:15.067Z,1.50
2022-09-22T19:59:42.080Z,1.42
2022-09-22T20:02:13.898Z,1.50
2022-09-22T20:04:41.415Z,1.30
2022-09-22T20:07:11.008Z,1.67
2022-09-22T20:09:38.500Z,1.58
2022-09-22T20:12:05.481Z,1.60
2022-09-22T20:14:32.886Z,1.70
2022-09-22T20:17:05.727Z,1.50
2022-09-22T20:19:34.895Z,1.48
2022-09-22T20:22:27.723Z,1.70
2022-09-22T20:24:57.618Z,1.40
2022-09-22T20:27:29.305Z,1.50
2022-09-22T20:29:57.594Z,1.60
2022-09-22T20:32:29.595Z,1.40
2022-09-22T20:34:56.536Z,1.40
2022-09-22T20:37:25.039Z,1.48
2022-09-22T20:39:52.468Z,1.50
2022-09-22T20:42:19.646Z,1.48
2022-09-22T20:44:47.132Z,1.40
2022-09-22T20:47:16.781Z,1.40
2022-09-22T20:49:47.998Z,1.50
2022-09-22T20:52:19.876Z,1.48
2022-09-22T20:54:47.198Z,1.48
2022-09-22T20:57:14.314Z,1.40
2022-09-22T20:59:42.645Z,1.48
2022-09-22T21:02:11.464Z,1.40
2022-09-22T21:04:38.466Z,1.38
2022-09-22T21:07:05.456Z,1.50
2022-09-22T21:09:51.133Z,1.50
2022-09-22T21:12:18.159Z,1.30
2022-09-22T21:14:46.080Z,1.50
2022-09-22T21:17:13.911Z,1.50
2022-09-22T21:19:41.190Z,1.63
2022-09-22T21:22:08.217Z,1.40
2022-09-22T21:24:35.196Z,1.30
2022-09-22T21:27:02.289Z,1.40
2022-09-22T21:29:29.857Z,1.48
2022-09-22T21:31:58.152Z,1.45
2022-09-22T21:34:25.406Z,1.50
2022-09-22T21:36:52.457Z,1.30
2022-09-22T21:39:19.445Z,1.33
2022-09-22T21:41:46.430Z,1.17
2022-09-22T21:44:13.515Z,1.48
2022-09-22T21:46:41.906Z,1.38
2022-09-22T21:49:10.290Z,1.23
2022-09-22T21:51:42.576Z,1.20
2022-09-22T21:54:15.494Z,1.20
2022-09-22T21:56:42.587Z,1.48
2022-09-22T21:59:11.866Z,1.27
2022-09-22T22:01:40.552Z,1.35
2022-09-22T22:04:08.265Z,1.50
2022-09-22T22:06:40.882Z,1.20
2022-09-22T22:09:20.737Z,1.20
2022-09-22T22:11:55.556Z,1.10
2022-09-22T22:14:25.645Z,1.30
2022-09-22T22:16:54.549Z,1.40
2022-09-22T22:19:25.859Z,1.00
2022-09-22T22:21:53.842Z,1.30
2022-09-22T22:24:30.205Z,1.20
2022-09-22T22:27:01.474Z,1.20
2022-09-22T22:29:34.275Z,1.15
2022-09-22T22:32:01.965Z,1.10
2022-09-22T22:34:28.990Z,1.30
2022-09-22T22:37:00.548Z,1.20
2022-09-22T22:39:27.715Z,1.00
2022-09-22T22:41:55.411Z,1.23
2022-09-22T22:44:22.864Z,1.13
2022-09-22T22:46:49.969Z,1.10
2022-09-22T22:49:16.917Z,1.30
2022-09-22T22:51:44.238Z,1.35
2022-09-22T22:54:12.160Z,1.10
2022-09-22T22:56:42.513Z,1.10
2022-09-22T22:59:10.706Z,1.17
2022-09-22T23:01:37.931Z,1.00
2022-09-22T23:04:07.593Z,1.08
2022-09-22T23:06:39.007Z,1.08
2022-09-22T23:09:08.228Z,1.20
2022-09-22T23:11:40.688Z,1.20
2022-09-22T23:14:11.484Z,1.30
2022-09-22T23:16:43.770Z,1.10
2022-09-22T23:19:13.476Z,1.20
2022-09-22T23:21:40.601Z,1.00
2022-09-22T23:24:08.440Z,1.20
2022-09-22T23:26:37.710Z,1.00
2022-09-22T23:29:05.428Z,1.00
2022-09-22T23:31:32.755Z,1.10
2022-09-22T23:33:59.906Z,1.20
2022-09-22T23:36:28.910Z,0.90
2022-09-22T23:39:04.281Z,1.10
2022-09-22T23:41:33.282Z,1.02
2022-09-22T23:44:00.786Z,1.10
2022-09-22T23:46:28.111Z,1.10
2022-09-22T23:48:55.727Z,1.10
2022-09-22T23:51:23.815Z,1.05
2022-09-22T23:53:50.766Z,1.00
2022-09-22T23:56:18.146Z,1.08
2022-09-22T23:58:46.593Z,1.05
